createdAt,value
2022-12-31T00:01:13.947Z,0.30
2022-12-31T00:03:43.827Z,0.40
2022-12-31T00:06:32.591Z,0.40
2022-12-31T00:09:04.199Z,0.30
2022-12-31T00:11:32.275Z,0.30
2022-12-31T00:13:59.478Z,0.50
2022-12-31T00:16:36.501Z,0.20
2022-12-31T00:19:05.118Z,0.30
2022-12-31T00:21:35.888Z,0.20
2022-12-31T00:24:06.168Z,0.20
2022-12-31T00:26:38.793Z,0.20
2022-12-31T00:29:06.195Z,0.20
2022-12-31T00:31:38.161Z,0.20
2022-12-31T00:34:07.925Z,0.30
2022-12-31T00:36:40.314Z,0.20
2022-12-31T00:39:10.904Z,0.20
2022-12-31T00:41:44.273Z,0.20
2022-12-31T00:44:14.515Z,0.20
2022-12-31T00:49:13.668Z,0.30
2022-12-31T00:51:40.777Z,0.20
2022-12-31T00:54:08.650Z,0.30
2022-12-31T00:56:38.046Z,0.40
2022-12-31T00:59:05.257Z,0.20
2022-12-31T01:01:38.229Z,0.30
2022-12-31T01:04:11.291Z,0.30
2022-12-31T01:06:39.532Z,0.30
2022-12-31T01:09:10.586Z,0.10
2022-12-31T01:11:37.829Z,0.30
2022-12-31T01:14:06.548Z,0.30
2022-12-31T01:16:48.491Z,0.20
2022-12-31T01:19:22.664Z,0.20
2022-12-31T01:21:52.899Z,0.20
2022-12-31T01:24:22.602Z,0.30
2022-12-31T01:26:51.205Z,0.20
2022-12-31T01:29:18.537Z,0.20
2022-12-31T01:31:45.693Z,0.27
2022-12-31T01:34:13.011Z,0.20
2022-12-31T01:36:40.372Z,0.37
2022-12-31T01:39:09.292Z,0.20
2022-12-31T01:41:41.337Z,0.30
2022-12-31T01:44:28.612Z,0.20
2022-12-31T01:47:03.891Z,0.37
2022-12-31T01:49:44.853Z,0.37
2022-12-31T01:52:20.901Z,0.20
2022-12-31T01:55:15.448Z,0.37
2022-12-31T01:57:46.721Z,0.10
2022-12-31T02:00:14.397Z,0.10
2022-12-31T02:02:41.686Z,0.27
2022-12-31T02:05:30.678Z,0.20
2022-12-31T02:08:01.326Z,0.20
2022-12-31T02:10:28.728Z,0.30
2022-12-31T02:13:04.701Z,0.10
2022-12-31T02:15:52.933Z,0.20
2022-12-31T02:18:29.663Z,0.30
2022-12-31T02:21:41.296Z,0.20
2022-12-31T02:24:38.322Z,0.17
2022-12-31T02:27:52.570Z,0.33
2022-12-31T02:30:26.763Z,0.30
2022-12-31T02:33:08.069Z,0.23
2022-12-31T02:36:02.612Z,0.33
2022-12-31T02:38:36.661Z,0.40
2022-12-31T02:41:03.823Z,0.50
2022-12-31T02:43:33.017Z,0.20
2022-12-31T02:46:04.430Z,0.47
2022-12-31T02:48:43.844Z,0.40
2022-12-31T02:51:45.890Z,0.40
2022-12-31T02:54:26.385Z,0.40
2022-12-31T02:57:22.110Z,0.50
2022-12-31T03:00:13.673Z,0.50
2022-12-31T03:02:48.270Z,0.50
2022-12-31T03:05:23.362Z,0.70
2022-12-31T03:07:50.902Z,0.75
2022-12-31T03:10:18.113Z,0.63
2022-12-31T03:12:48.760Z,0.40
2022-12-31T03:15:28.598Z,0.60
2022-12-31T03:18:08.446Z,0.70
2022-12-31T03:21:00.883Z,0.40
2022-12-31T03:23:27.986Z,0.47
2022-12-31T03:25:58.904Z,0.50
2022-12-31T03:28:31.251Z,0.60
2022-12-31T03:31:08.586Z,0.50
2022-12-31T03:33:42.859Z,0.60
2022-12-31T03:36:18.406Z,0.60
2022-12-31T03:38:52.573Z,0.43
2022-12-31T03:41:20.062Z,0.40
2022-12-31T03:43:49.185Z,0.50
2022-12-31T03:46:16.356Z,0.47
2022-12-31T03:48:43.477Z,0.63
2022-12-31T03:51:10.618Z,0.50
2022-12-31T03:53:37.734Z,0.80
2022-12-31T03:56:07.324Z,0.63
2022-12-31T03:58:36.703Z,0.50
2022-12-31T04:01:06.288Z,0.40
2022-12-31T04:03:35.888Z,0.60
2022-12-31T04:06:03.139Z,0.67
2022-12-31T04:08:30.216Z,0.63
2022-12-31T04:11:00.353Z,0.50
2022-12-31T04:13:27.444Z,0.60
2022-12-31T04:15:54.578Z,0.53
2022-12-31T04:18:23.771Z,0.60
2022-12-31T04:20:55.737Z,0.50
2022-12-31T04:23:22.856Z,0.50
2022-12-31T04:25:53.993Z,0.77
2022-12-31T04:28:23.656Z,0.40
2022-12-31T04:30:53.409Z,0.40
2022-12-31T04:33:20.503Z,0.50
2022-12-31T04:35:47.606Z,0.60
2022-12-31T04:38:20.195Z,0.50
2022-12-31T04:41:08.655Z,0.93
2022-12-31T04:43:38.070Z,0.77
2022-12-31T04:46:05.326Z,0.88
2022-12-31T04:48:33.129Z,0.57
2022-12-31T04:51:00.414Z,0.53
2022-12-31T04:53:32.517Z,0.70
2022-12-31T04:56:02.135Z,0.80
2022-12-31T04:58:29.300Z,0.67
2022-12-31T05:00:56.760Z,0.90
2022-12-31T05:03:25.891Z,0.57
2022-12-31T05:05:54.079Z,0.40
2022-12-31T05:08:21.418Z,0.50
2022-12-31T05:10:49.697Z,0.57
2022-12-31T05:13:17.052Z,0.70
2022-12-31T05:15:49.060Z,0.77
2022-12-31T05:18:18.844Z,0.60
2022-12-31T05:20:47.073Z,0.70
2022-12-31T05:23:17.585Z,0.73
2022-12-31T05:25:48.607Z,0.50
2022-12-31T05:28:18.426Z,0.53
2022-12-31T05:30:47.943Z,0.40
2022-12-31T05:33:15.101Z,0.53
2022-12-31T05:35:42.282Z,0.57
2022-12-31T05:38:09.440Z,0.40
2022-12-31T05:40:36.535Z,0.73
2022-12-31T05:43:03.825Z,0.50
2022-12-31T05:45:33.131Z,0.60
2022-12-31T05:48:00.599Z,0.60
2022-12-31T05:50:27.920Z,0.50
2022-12-31T05:52:57.406Z,0.60
2022-12-31T05:55:24.593Z,0.47
2022-12-31T05:57:51.703Z,0.77
2022-12-31T06:00:18.998Z,0.60
2022-12-31T06:02:48.566Z,0.60
2022-12-31T06:05:25.950Z,0.90
2022-12-31T06:07:57.870Z,0.67
2022-12-31T06:10:27.319Z,0.80
2022-12-31T06:12:56.676Z,0.50
2022-12-31T06:15:23.883Z,0.70
2022-12-31T06:17:51.078Z,1.20
2022-12-31T06:20:18.313Z,0.77
2022-12-31T06:22:45.430Z,0.70
2022-12-31T06:25:12.603Z,0.80
2022-12-31T06:27:39.732Z,0.77
2022-12-31T06:30:07.920Z,0.70
2022-12-31T06:32:35.151Z,0.80
2022-12-31T06:35:05.006Z,0.70
2022-12-31T06:37:32.404Z,0.63
2022-12-31T06:39:59.814Z,0.73
2022-12-31T06:42:30.901Z,1.00
2022-12-31T06:45:01.630Z,1.00
2022-12-31T06:47:28.843Z,0.73
2022-12-31T06:49:56.014Z,0.77
2022-12-31T06:52:25.356Z,0.60
2022-12-31T06:54:52.757Z,0.63
2022-12-31T06:57:23.597Z,0.70
2022-12-31T06:59:51.182Z,0.70
2022-12-31T07:02:50.202Z,0.73
2022-12-31T07:05:39.307Z,0.93
2022-12-31T07:08:29.545Z,0.60
2022-12-31T07:11:05.019Z,0.70
2022-12-31T07:14:01.253Z,0.90
2022-12-31T07:16:50.472Z,0.53
2022-12-31T07:19:57.184Z,0.77
2022-12-31T07:22:24.964Z,0.70
2022-12-31T07:24:52.786Z,0.83
2022-12-31T07:27:34.423Z,0.63
2022-12-31T07:30:21.851Z,0.50
2022-12-31T07:33:06.983Z,0.60
2022-12-31T07:36:24.330Z,0.80
2022-12-31T07:39:10.275Z,1.00
2022-12-31T07:42:07.493Z,1.07
2022-12-31T07:45:04.640Z,0.80
2022-12-31T07:47:35.234Z,0.50
2022-12-31T07:50:02.605Z,1.03
2022-12-31T07:52:30.073Z,0.67
2022-12-31T07:54:59.699Z,0.83
2022-12-31T07:57:34.482Z,1.00
2022-12-31T08:00:16.176Z,0.60
2022-12-31T08:02:52.563Z,0.60
2022-12-31T08:05:57.461Z,0.80
2022-12-31T08:08:42.683Z,0.67
2022-12-31T08:11:18.406Z,0.98
2022-12-31T08:13:45.913Z,0.93
2022-12-31T08:16:14.174Z,1.30
2022-12-31T08:18:49.559Z,1.00
2022-12-31T08:21:56.508Z,0.80
2022-12-31T08:24:55.968Z,0.87
2022-12-31T08:27:59.435Z,0.87
2022-12-31T08:30:41.265Z,1.20
2022-12-31T08:33:18.910Z,1.33
2022-12-31T08:35:55.919Z,0.80
2022-12-31T08:38:31.664Z,1.00
2022-12-31T08:41:37.625Z,0.73
2022-12-31T08:44:46.539Z,1.47
2022-12-31T08:47:56.456Z,1.17
2022-12-31T08:50:30.015Z,1.00
2022-12-31T08:53:03.832Z,1.20
2022-12-31T08:55:31.241Z,1.10
2022-12-31T08:58:21.935Z,1.10
2022-12-31T09:00:53.263Z,0.70
2022-12-31T09:03:38.707Z,0.83
2022-12-31T09:06:38.242Z,0.80
2022-12-31T09:09:17.641Z,1.03
2022-12-31T09:12:18.182Z,1.10
2022-12-31T09:15:00.155Z,1.03
2022-12-31T09:17:47.567Z,1.30
2022-12-31T09:20:26.260Z,1.40
2022-12-31T09:22:55.296Z,1.13
2022-12-31T09:25:26.185Z,1.30
2022-12-31T09:28:16.718Z,1.37
2022-12-31T09:31:11.344Z,1.37
2022-12-31T09:33:55.201Z,1.10
2022-12-31T09:36:31.213Z,1.20
2022-12-31T09:39:16.422Z,1.50
2022-12-31T09:41:58.412Z,1.27
2022-12-31T09:45:19.406Z,1.80
2022-12-31T09:48:09.197Z,1.27
2022-12-31T09:50:36.365Z,1.37
2022-12-31T09:53:54.659Z,1.20
2022-12-31T09:56:45.766Z,1.50
2022-12-31T09:59:35.944Z,1.40
2022-12-31T10:02:42.084Z,1.40
2022-12-31T10:05:51.233Z,1.20
2022-12-31T10:08:36.524Z,1.30
2022-12-31T10:11:11.029Z,1.40
2022-12-31T10:14:28.742Z,1.17
2022-12-31T10:17:20.945Z,1.50
2022-12-31T10:20:00.425Z,1.53
2022-12-31T10:22:53.126Z,1.40
2022-12-31T10:25:42.206Z,1.57
2022-12-31T10:28:24.102Z,1.10
2022-12-31T10:31:27.378Z,1.03
2022-12-31T10:34:13.390Z,1.13
2022-12-31T10:37:01.459Z,1.50
2022-12-31T10:39:43.112Z,1.27
2022-12-31T10:42:51.464Z,1.23
2022-12-31T10:46:01.243Z,1.53
2022-12-31T10:49:02.578Z,1.60
2022-12-31T10:52:10.726Z,1.00
2022-12-31T10:54:40.903Z,1.10
2022-12-31T10:57:46.860Z,1.10
2022-12-31T11:00:21.664Z,1.73
2022-12-31T11:02:54.854Z,1.10
2022-12-31T11:05:48.478Z,1.50
2022-12-31T11:08:24.698Z,1.40
2022-12-31T11:11:03.552Z,1.23
2022-12-31T11:13:55.309Z,1.40
2022-12-31T11:16:28.607Z,1.20
2022-12-31T11:19:24.894Z,1.50
2022-12-31T11:22:11.618Z,1.27
2022-12-31T11:25:07.596Z,1.10
2022-12-31T11:28:14.602Z,1.17
2022-12-31T11:31:13.076Z,1.07
2022-12-31T11:34:14.511Z,1.17
2022-12-31T11:36:57.258Z,1.30
2022-12-31T11:39:51.912Z,1.67
2022-12-31T11:42:27.368Z,1.37
2022-12-31T11:45:23.862Z,1.63
2022-12-31T11:48:37.545Z,1.57
2022-12-31T11:51:17.094Z,1.30
2022-12-31T11:54:28.584Z,2.03
2022-12-31T11:57:23.653Z,1.80
2022-12-31T12:00:04.813Z,1.37
2022-12-31T12:02:37.516Z,1.50
2022-12-31T12:05:11.062Z,1.13
2022-12-31T12:07:39.075Z,1.40
2022-12-31T12:10:36.206Z,1.57
2022-12-31T12:13:18.807Z,1.87
2022-12-31T12:15:50.046Z,1.37
2022-12-31T12:18:48.410Z,1.33
2022-12-31T12:21:23.208Z,1.40
2022-12-31T12:24:09.065Z,1.20
2022-12-31T12:26:37.802Z,1.70
2022-12-31T12:29:18.379Z,1.70
2022-12-31T12:32:15.154Z,1.90
2022-12-31T12:34:49.568Z,1.80
2022-12-31T12:37:36.179Z,1.65
2022-12-31T12:40:18.800Z,1.70
2022-12-31T12:42:49.718Z,1.67
2022-12-31T12:45:29.290Z,1.60
2022-12-31T12:48:02.363Z,1.60
2022-12-31T12:50:48.725Z,1.80
2022-12-31T12:53:40.643Z,1.80
2022-12-31T12:56:25.902Z,1.65
2022-12-31T12:59:11.639Z,1.60
2022-12-31T13:01:43.030Z,1.90
2022-12-31T13:04:34.426Z,1.97
2022-12-31T13:07:11.860Z,1.67
2022-12-31T13:10:00.909Z,1.57
2022-12-31T13:12:48.946Z,2.00
2022-12-31T13:15:45.639Z,2.27
2022-12-31T13:18:42.367Z,2.23
2022-12-31T13:21:37.448Z,1.80
2022-12-31T13:24:32.744Z,2.23
2022-12-31T13:27:42.008Z,1.90
2022-12-31T13:30:21.912Z,1.70
2022-12-31T13:33:01.391Z,1.80
2022-12-31T13:35:38.222Z,1.90
2022-12-31T13:38:17.622Z,1.53
2022-12-31T13:41:05.248Z,2.10
2022-12-31T13:43:48.866Z,2.00
2022-12-31T13:46:54.844Z,1.87
2022-12-31T13:49:37.964Z,1.90
2022-12-31T13:52:21.553Z,2.10
2022-12-31T13:55:19.549Z,2.10
2022-12-31T13:57:56.574Z,2.13
2022-12-31T14:00:27.447Z,1.77
2022-12-31T14:03:24.494Z,1.90
2022-12-31T14:06:03.356Z,2.10
2022-12-31T14:08:32.957Z,1.70
2022-12-31T14:11:18.109Z,1.80
2022-12-31T14:14:04.100Z,1.80
2022-12-31T14:16:31.190Z,1.67
2022-12-31T14:19:06.677Z,1.93
2022-12-31T14:21:36.759Z,1.80
2022-12-31T14:24:11.600Z,1.60
2022-12-31T14:26:52.795Z,1.47
2022-12-31T14:29:43.501Z,1.70
2022-12-31T14:32:31.255Z,1.80
2022-12-31T14:35:29.218Z,1.40
2022-12-31T14:37:56.336Z,1.57
2022-12-31T14:40:26.242Z,1.60
2022-12-31T14:43:25.240Z,2.10
2022-12-31T14:46:30.501Z,1.50
2022-12-31T14:49:19.065Z,1.40
2022-12-31T14:51:46.970Z,1.97
2022-12-31T14:54:34.468Z,1.70
2022-12-31T14:57:22.309Z,1.90
2022-12-31T14:59:59.958Z,1.63
2022-12-31T15:02:30.582Z,1.43
2022-12-31T15:05:11.863Z,1.90
2022-12-31T15:07:47.437Z,1.70
2022-12-31T15:10:18.900Z,1.80
2022-12-31T15:13:05.227Z,2.07
2022-12-31T15:16:04.254Z,1.90
2022-12-31T15:18:38.921Z,1.70
2022-12-31T15:21:28.062Z,1.30
2022-12-31T15:23:58.005Z,1.70
2022-12-31T15:26:32.115Z,1.70
2022-12-31T15:29:04.003Z,1.57
2022-12-31T15:31:44.925Z,1.70
2022-12-31T15:34:30.483Z,1.60
2022-12-31T15:37:05.141Z,2.05
2022-12-31T15:39:46.054Z,2.00
2022-12-31T15:42:55.477Z,1.40
2022-12-31T15:45:32.910Z,1.97
2022-12-31T15:48:07.513Z,1.60
2022-12-31T15:50:39.840Z,1.47
2022-12-31T15:53:10.290Z,2.00
2022-12-31T15:55:49.632Z,1.60
2022-12-31T15:58:35.842Z,1.70
2022-12-31T16:01:39.305Z,1.90
2022-12-31T16:04:14.844Z,2.00
2022-12-31T16:06:50.499Z,1.80
2022-12-31T16:09:24.277Z,1.60
2022-12-31T16:11:53.086Z,1.70
2022-12-31T16:14:25.032Z,2.05
2022-12-31T16:16:59.994Z,1.97
2022-12-31T16:19:47.457Z,2.10
2022-12-31T16:22:17.474Z,2.23
2022-12-31T16:25:19.403Z,1.70
2022-12-31T16:27:37.419Z,2.10
2022-12-31T16:30:08.405Z,1.80
2022-12-31T16:32:41.156Z,1.90
2022-12-31T16:35:30.703Z,2.10
2022-12-31T16:38:18.537Z,1.80
2022-12-31T16:41:01.011Z,2.03
2022-12-31T16:43:36.087Z,1.97
2022-12-31T16:46:26.964Z,2.60
2022-12-31T16:49:00.830Z,2.13
2022-12-31T16:51:34.002Z,1.93
2022-12-31T16:54:02.404Z,1.90
2022-12-31T16:56:38.591Z,2.00
2022-12-31T16:59:54.574Z,1.73
2022-12-31T17:02:37.678Z,1.80
2022-12-31T17:05:17.931Z,1.90
2022-12-31T17:07:45.309Z,1.80
2022-12-31T17:10:27.837Z,1.60
2022-12-31T17:13:28.317Z,2.23
2022-12-31T17:15:48.088Z,2.10
2022-12-31T17:18:24.196Z,2.20
2022-12-31T17:21:03.902Z,1.63
2022-12-31T17:23:35.767Z,2.13
2022-12-31T17:26:24.861Z,2.30
2022-12-31T17:28:58.755Z,1.83
2022-12-31T17:31:30.548Z,2.17
2022-12-31T17:34:12.827Z,2.10
2022-12-31T17:37:04.105Z,1.53
2022-12-31T17:39:47.234Z,1.97
2022-12-31T17:42:23.634Z,1.80
2022-12-31T17:44:54.149Z,2.10
2022-12-31T17:47:21.455Z,2.50
2022-12-31T17:49:53.311Z,1.83
2022-12-31T17:52:20.575Z,2.30
2022-12-31T17:54:47.853Z,1.90
2022-12-31T17:57:29.811Z,2.00
2022-12-31T17:59:59.685Z,2.10
2022-12-31T18:02:26.939Z,2.23
2022-12-31T18:04:54.289Z,1.97
2022-12-31T18:07:24.011Z,2.40
2022-12-31T18:09:53.334Z,2.00
2022-12-31T18:12:20.988Z,2.17
2022-12-31T18:14:48.144Z,2.43
2022-12-31T18:17:18.309Z,2.27
2022-12-31T18:20:04.674Z,1.90
2022-12-31T18:22:32.660Z,1.97
2022-12-31T18:24:59.963Z,2.53
2022-12-31T18:27:30.689Z,2.27
2022-12-31T18:30:04.110Z,2.67
2022-12-31T18:32:33.284Z,2.17
2022-12-31T18:35:00.559Z,2.37
2022-12-31T18:37:32.201Z,2.43
2022-12-31T18:39:59.345Z,2.10
2022-12-31T18:42:29.526Z,1.87
2022-12-31T18:44:59.065Z,2.00
2022-12-31T18:47:26.380Z,2.50
2022-12-31T18:49:55.831Z,2.17
2022-12-31T18:52:25.187Z,2.20
2022-12-31T18:54:54.634Z,2.40
2022-12-31T18:57:26.561Z,2.60
2022-12-31T18:59:56.407Z,2.57
2022-12-31T19:02:23.564Z,2.20
2022-12-31T19:04:53.227Z,2.70
2022-12-31T19:07:20.436Z,2.47
2022-12-31T19:09:50.140Z,2.50
2022-12-31T19:12:22.607Z,2.20
2022-12-31T19:14:49.741Z,2.10
2022-12-31T19:17:19.289Z,2.10
2022-12-31T19:19:46.470Z,2.30
2022-12-31T19:22:18.423Z,1.90
2022-12-31T19:24:47.951Z,2.03
2022-12-31T19:27:17.493Z,2.53
2022-12-31T19:29:44.678Z,2.03
2022-12-31T19:32:14.173Z,2.17
2022-12-31T19:34:43.759Z,2.63
2022-12-31T19:37:16.114Z,2.37
2022-12-31T19:39:43.299Z,2.10
2022-12-31T19:42:16.132Z,2.10
2022-12-31T19:44:45.614Z,2.20
2022-12-31T19:47:19.755Z,2.67
2022-12-31T19:49:48.966Z,2.50
2022-12-31T19:52:16.135Z,2.30
2022-12-31T19:54:43.281Z,2.30
2022-12-31T19:57:10.401Z,2.27
2022-12-31T19:59:37.577Z,2.10
2022-12-31T20:02:11.789Z,2.23
2022-12-31T20:04:41.815Z,2.10
2022-12-31T20:07:11.321Z,2.20
2022-12-31T20:09:38.492Z,2.23
2022-12-31T20:12:07.750Z,2.23
2022-12-31T20:14:37.421Z,2.33
2022-12-31T20:17:04.666Z,2.37
2022-12-31T20:19:31.837Z,2.70
2022-12-31T20:22:01.479Z,1.97
2022-12-31T20:24:33.388Z,2.50
2022-12-31T20:27:00.621Z,2.50
2022-12-31T20:29:30.407Z,2.20
2022-12-31T20:31:57.670Z,2.37
2022-12-31T20:34:27.700Z,2.20
2022-12-31T20:36:55.136Z,2.50
2022-12-31T20:39:22.405Z,2.40
2022-12-31T20:41:49.643Z,2.33
2022-12-31T20:44:16.756Z,2.27
2022-12-31T20:46:46.242Z,2.40
2022-12-31T20:49:13.549Z,2.83
2022-12-31T20:51:40.716Z,2.53
2022-12-31T20:54:10.134Z,2.30
2022-12-31T20:56:42.987Z,2.23
2022-12-31T20:59:13.324Z,2.30
2022-12-31T21:02:19.568Z,2.10
2022-12-31T21:04:29.786Z,2.20
2022-12-31T21:06:57.141Z,1.97
2022-12-31T21:09:24.370Z,2.40
2022-12-31T21:12:10.399Z,1.83
2022-12-31T21:14:42.793Z,2.17
2022-12-31T21:17:11.827Z,2.23
2022-12-31T21:19:39.007Z,2.30
2022-12-31T21:22:06.213Z,1.97
2022-12-31T21:24:35.844Z,2.30
2022-12-31T21:27:03.050Z,2.25
2022-12-31T21:29:34.587Z,2.10
2022-12-31T21:32:05.577Z,1.83
2022-12-31T21:34:33.325Z,2.53
2022-12-31T21:37:02.913Z,2.17
2022-12-31T21:39:35.962Z,2.37
2022-12-31T21:42:08.184Z,2.30
2022-12-31T21:44:35.357Z,2.30
2022-12-31T21:47:47.235Z,2.10
2022-12-31T21:50:13.096Z,1.73
2022-12-31T21:52:42.508Z,2.40
2022-12-31T21:55:31.457Z,2.10
2022-12-31T21:58:25.268Z,2.30
2022-12-31T22:01:08.218Z,3.00
2022-12-31T22:03:35.871Z,2.50
2022-12-31T22:06:14.742Z,2.63
2022-12-31T22:08:46.592Z,2.87
2022-12-31T22:11:15.535Z,2.33
2022-12-31T22:13:43.904Z,2.70
2022-12-31T22:16:17.196Z,3.03
2022-12-31T22:18:44.461Z,2.70
2022-12-31T22:21:20.827Z,2.27
2022-12-31T22:23:59.978Z,2.00
2022-12-31T22:26:29.857Z,2.30
2022-12-31T22:28:59.843Z,2.13
2022-12-31T22:31:30.057Z,2.10
2022-12-31T22:33:58.978Z,2.43
2022-12-31T22:36:28.369Z,3.13
2022-12-31T22:39:00.299Z,2.47
2022-12-31T22:41:29.521Z,2.60
2022-12-31T22:44:04.940Z,2.50
2022-12-31T22:46:33.455Z,2.20
2022-12-31T22:49:04.351Z,2.40
2022-12-31T22:51:58.709Z,2.90
2022-12-31T22:54:25.936Z,2.33
2022-12-31T22:56:53.323Z,2.03
2022-12-31T22:59:20.464Z,2.80
2022-12-31T23:01:47.906Z,2.67
2022-12-31T23:04:15.251Z,3.13
2022-12-31T23:06:48.387Z,3.38
2022-12-31T23:09:35.773Z,2.40
2022-12-31T23:12:05.562Z,2.23
2022-12-31T23:14:51.424Z,2.27
2022-12-31T23:17:43.040Z,2.50
2022-12-31T23:20:38.500Z,2.60
2022-12-31T23:23:11.937Z,2.50
2022-12-31T23:25:44.004Z,2.10
2022-12-31T23:28:20.341Z,2.50
2022-12-31T23:30:53.180Z,1.90
2022-12-31T23:33:25.463Z,2.67
2022-12-31T23:36:05.959Z,2.47
2022-12-31T23:38:35.722Z,2.00
2022-12-31T23:41:12.547Z,2.30
2022-12-31T23:43:48.365Z,2.17
2022-12-31T23:46:16.927Z,2.20
2022-12-31T23:48:46.250Z,2.00
2022-12-31T23:51:15.433Z,2.23
2022-12-31T23:53:42.653Z,2.23
2022-12-31T23:56:20.959Z,2.20
2022-12-31T23:58:57.337Z,2.03
